sensor_id;sensor_type;location;lat;lon;timestamp;P1;durP1;ratioP1;P2;durP2;ratioP2
52354;SDS011;38286;51.156;17.038;2023-09-18T00:01:08;16.65;;;10.65;;
52354;SDS011;38286;51.156;17.038;2023-09-18T00:03:40;17.85;;;11.68;;
52354;SDS011;38286;51.156;17.038;2023-09-18T00:06:06;15.88;;;11.00;;
52354;SDS011;38286;51.156;17.038;2023-09-18T00:08:34;14.75;;;10.55;;
52354;SDS011;38286;51.156;17.038;2023-09-18T00:11:00;17.27;;;11.45;;
52354;SDS011;38286;51.156;17.038;2023-09-18T00:13:26;15.52;;;10.88;;
52354;SDS011;38286;51.156;17.038;2023-09-18T00:15:55;19.00;;;11.60;;
52354;SDS011;38286;51.156;17.038;2023-09-18T00:18:21;17.27;;;11.32;;
52354;SDS011;38286;51.156;17.038;2023-09-18T00:20:48;16.95;;;11.18;;
52354;SDS011;38286;51.156;17.038;2023-09-18T00:23:15;17.17;;;11.35;;
52354;SDS011;38286;51.156;17.038;2023-09-18T00:25:41;20.58;;;11.63;;
52354;SDS011;38286;51.156;17.038;2023-09-18T00:28:08;17.45;;;11.68;;
52354;SDS011;38286;51.156;17.038;2023-09-18T00:30:34;15.50;;;11.13;;
52354;SDS011;38286;51.156;17.038;2023-09-18T00:33:00;17.13;;;11.52;;
52354;SDS011;38286;51.156;17.038;2023-09-18T00:35:26;17.90;;;11.80;;
52354;SDS011;38286;51.156;17.038;2023-09-18T00:37:52;19.27;;;11.50;;
52354;SDS011;38286;51.156;17.038;2023-09-18T00:40:18;19.45;;;11.80;;
52354;SDS011;38286;51.156;17.038;2023-09-18T00:42:44;15.98;;;10.82;;
52354;SDS011;38286;51.156;17.038;2023-09-18T00:45:10;17.88;;;11.23;;
52354;SDS011;38286;51.156;17.038;2023-09-18T00:47:37;18.98;;;12.07;;
52354;SDS011;38286;51.156;17.038;2023-09-18T00:50:03;19.92;;;13.48;;
52354;SDS011;38286;51.156;17.038;2023-09-18T00:52:30;22.55;;;13.65;;
52354;SDS011;38286;51.156;17.038;2023-09-18T00:54:57;18.55;;;12.50;;
52354;SDS011;38286;51.156;17.038;2023-09-18T00:57:23;20.67;;;12.77;;
52354;SDS011;38286;51.156;17.038;2023-09-18T00:59:49;18.23;;;11.75;;
52354;SDS011;38286;51.156;17.038;2023-09-18T01:02:16;18.40;;;11.80;;
52354;SDS011;38286;51.156;17.038;2023-09-18T01:04:42;17.75;;;11.85;;
52354;SDS011;38286;51.156;17.038;2023-09-18T01:07:10;20.77;;;12.35;;
52354;SDS011;38286;51.156;17.038;2023-09-18T01:09:36;17.10;;;12.52;;
52354;SDS011;38286;51.156;17.038;2023-09-18T01:15:26;23.73;;;13.40;;
52354;SDS011;38286;51.156;17.038;2023-09-18T01:17:34;20.92;;;13.55;;
52354;SDS011;38286;51.156;17.038;2023-09-18T01:20:03;25.30;;;15.02;;
52354;SDS011;38286;51.156;17.038;2023-09-18T01:22:31;25.58;;;14.82;;
52354;SDS011;38286;51.156;17.038;2023-09-18T01:24:57;23.58;;;15.15;;
52354;SDS011;38286;51.156;17.038;2023-09-18T01:27:24;26.63;;;14.75;;
52354;SDS011;38286;51.156;17.038;2023-09-18T01:29:49;26.00;;;13.93;;
52354;SDS011;38286;51.156;17.038;2023-09-18T01:32:16;24.80;;;14.20;;
52354;SDS011;38286;51.156;17.038;2023-09-18T01:34:45;21.67;;;13.75;;
52354;SDS011;38286;51.156;17.038;2023-09-18T01:37:12;24.77;;;13.40;;
52354;SDS011;38286;51.156;17.038;2023-09-18T01:39:39;24.25;;;14.77;;
52354;SDS011;38286;51.156;17.038;2023-09-18T01:42:06;26.58;;;15.15;;
52354;SDS011;38286;51.156;17.038;2023-09-18T01:44:36;24.10;;;14.32;;
52354;SDS011;38286;51.156;17.038;2023-09-18T01:47:06;21.63;;;12.63;;
52354;SDS011;38286;51.156;17.038;2023-09-18T01:49:34;23.25;;;13.02;;
52354;SDS011;38286;51.156;17.038;2023-09-18T01:52:02;20.65;;;13.38;;
52354;SDS011;38286;51.156;17.038;2023-09-18T01:54:29;24.85;;;13.15;;
52354;SDS011;38286;51.156;17.038;2023-09-18T01:56:56;25.75;;;14.05;;
52354;SDS011;38286;51.156;17.038;2023-09-18T01:59:22;19.88;;;12.65;;
52354;SDS011;38286;51.156;17.038;2023-09-18T02:01:49;20.58;;;12.45;;
52354;SDS011;38286;51.156;17.038;2023-09-18T02:04:15;20.70;;;13.10;;
52354;SDS011;38286;51.156;17.038;2023-09-18T02:06:41;22.77;;;12.40;;
52354;SDS011;38286;51.156;17.038;2023-09-18T02:09:07;19.85;;;12.70;;
52354;SDS011;38286;51.156;17.038;2023-09-18T02:11:41;27.25;;;14.07;;
52354;SDS011;38286;51.156;17.038;2023-09-18T02:14:08;21.25;;;12.65;;
52354;SDS011;38286;51.156;17.038;2023-09-18T02:16:35;20.15;;;12.70;;
52354;SDS011;38286;51.156;17.038;2023-09-18T02:19:02;22.10;;;13.65;;
52354;SDS011;38286;51.156;17.038;2023-09-18T02:21:29;26.13;;;14.13;;
52354;SDS011;38286;51.156;17.038;2023-09-18T02:23:56;22.23;;;13.70;;
52354;SDS011;38286;51.156;17.038;2023-09-18T02:26:23;26.83;;;14.73;;
52354;SDS011;38286;51.156;17.038;2023-09-18T02:28:51;20.80;;;13.68;;
52354;SDS011;38286;51.156;17.038;2023-09-18T02:31:19;26.17;;;13.63;;
52354;SDS011;38286;51.156;17.038;2023-09-18T02:33:45;21.45;;;14.05;;
52354;SDS011;38286;51.156;17.038;2023-09-18T02:36:12;26.20;;;14.70;;
52354;SDS011;38286;51.156;17.038;2023-09-18T02:38:38;23.65;;;14.25;;
52354;SDS011;38286;51.156;17.038;2023-09-18T02:41:05;22.08;;;13.38;;
52354;SDS011;38286;51.156;17.038;2023-09-18T02:43:30;23.75;;;13.90;;
52354;SDS011;38286;51.156;17.038;2023-09-18T02:45:57;25.58;;;13.48;;
52354;SDS011;38286;51.156;17.038;2023-09-18T02:48:22;25.48;;;14.52;;
52354;SDS011;38286;51.156;17.038;2023-09-18T02:50:49;26.77;;;15.07;;
52354;SDS011;38286;51.156;17.038;2023-09-18T02:53:18;28.25;;;15.82;;
52354;SDS011;38286;51.156;17.038;2023-09-18T02:55:48;28.17;;;15.00;;
52354;SDS011;38286;51.156;17.038;2023-09-18T02:58:15;27.42;;;15.45;;
52354;SDS011;38286;51.156;17.038;2023-09-18T03:00:42;24.88;;;13.68;;
52354;SDS011;38286;51.156;17.038;2023-09-18T03:03:12;23.48;;;13.07;;
52354;SDS011;38286;51.156;17.038;2023-09-18T03:05:40;23.58;;;14.20;;
52354;SDS011;38286;51.156;17.038;2023-09-18T03:08:06;22.90;;;14.25;;
52354;SDS011;38286;51.156;17.038;2023-09-18T03:10:33;24.73;;;13.50;;
52354;SDS011;38286;51.156;17.038;2023-09-18T03:13:03;23.95;;;14.13;;
52354;SDS011;38286;51.156;17.038;2023-09-18T03:15:30;23.58;;;15.10;;
52354;SDS011;38286;51.156;17.038;2023-09-18T03:17:57;23.27;;;13.88;;
52354;SDS011;38286;51.156;17.038;2023-09-18T03:20:26;24.77;;;14.68;;
52354;SDS011;38286;51.156;17.038;2023-09-18T03:22:55;27.02;;;14.93;;
52354;SDS011;38286;51.156;17.038;2023-09-18T03:25:22;27.80;;;15.15;;
52354;SDS011;38286;51.156;17.038;2023-09-18T03:27:50;26.52;;;14.15;;
52354;SDS011;38286;51.156;17.038;2023-09-18T03:30:17;23.75;;;13.80;;
52354;SDS011;38286;51.156;17.038;2023-09-18T03:32:44;24.85;;;13.88;;
52354;SDS011;38286;51.156;17.038;2023-09-18T03:35:11;29.58;;;15.10;;
52354;SDS011;38286;51.156;17.038;2023-09-18T03:37:46;29.95;;;15.27;;
52354;SDS011;38286;51.156;17.038;2023-09-18T03:40:13;23.65;;;14.52;;
52354;SDS011;38286;51.156;17.038;2023-09-18T03:42:39;26.60;;;15.38;;
52354;SDS011;38286;51.156;17.038;2023-09-18T03:45:06;27.05;;;15.88;;
52354;SDS011;38286;51.156;17.038;2023-09-18T03:47:37;25.38;;;15.85;;
52354;SDS011;38286;51.156;17.038;2023-09-18T03:50:05;25.88;;;15.32;;
52354;SDS011;38286;51.156;17.038;2023-09-18T03:52:32;31.77;;;16.17;;
52354;SDS011;38286;51.156;17.038;2023-09-18T03:54:58;30.02;;;17.48;;
52354;SDS011;38286;51.156;17.038;2023-09-18T03:57:24;33.45;;;16.73;;
52354;SDS011;38286;51.156;17.038;2023-09-18T03:59:50;35.13;;;17.30;;
52354;SDS011;38286;51.156;17.038;2023-09-18T04:02:16;31.42;;;17.02;;
52354;SDS011;38286;51.156;17.038;2023-09-18T04:04:42;35.10;;;18.90;;
52354;SDS011;38286;51.156;17.038;2023-09-18T04:07:08;34.00;;;18.48;;
52354;SDS011;38286;51.156;17.038;2023-09-18T04:09:35;39.60;;;19.45;;
52354;SDS011;38286;51.156;17.038;2023-09-18T04:12:01;31.58;;;16.92;;
52354;SDS011;38286;51.156;17.038;2023-09-18T04:14:28;34.50;;;18.17;;
52354;SDS011;38286;51.156;17.038;2023-09-18T04:16:54;36.22;;;19.17;;
52354;SDS011;38286;51.156;17.038;2023-09-18T04:19:21;39.50;;;19.65;;
52354;SDS011;38286;51.156;17.038;2023-09-18T04:21:46;39.83;;;20.25;;
52354;SDS011;38286;51.156;17.038;2023-09-18T04:24:13;39.22;;;20.30;;
52354;SDS011;38286;51.156;17.038;2023-09-18T04:26:39;37.72;;;20.10;;
52354;SDS011;38286;51.156;17.038;2023-09-18T04:29:05;34.40;;;20.00;;
52354;SDS011;38286;51.156;17.038;2023-09-18T04:31:31;40.15;;;19.80;;
52354;SDS011;38286;51.156;17.038;2023-09-18T04:33:57;42.75;;;20.67;;
52354;SDS011;38286;51.156;17.038;2023-09-18T04:36:23;36.38;;;19.42;;
52354;SDS011;38286;51.156;17.038;2023-09-18T04:38:50;37.42;;;19.77;;
52354;SDS011;38286;51.156;17.038;2023-09-18T04:41:16;33.10;;;18.30;;
52354;SDS011;38286;51.156;17.038;2023-09-18T04:43:42;39.35;;;20.27;;
52354;SDS011;38286;51.156;17.038;2023-09-18T04:46:08;38.05;;;19.77;;
52354;SDS011;38286;51.156;17.038;2023-09-18T04:48:34;40.92;;;19.90;;
52354;SDS011;38286;51.156;17.038;2023-09-18T04:51:01;37.83;;;19.90;;
52354;SDS011;38286;51.156;17.038;2023-09-18T04:53:31;41.97;;;20.63;;
52354;SDS011;38286;51.156;17.038;2023-09-18T04:55:58;44.47;;;21.33;;
52354;SDS011;38286;51.156;17.038;2023-09-18T04:58:24;39.03;;;20.92;;
52354;SDS011;38286;51.156;17.038;2023-09-18T05:00:54;34.90;;;19.58;;
52354;SDS011;38286;51.156;17.038;2023-09-18T05:03:20;39.20;;;19.55;;
52354;SDS011;38286;51.156;17.038;2023-09-18T05:05:46;38.50;;;21.20;;
52354;SDS011;38286;51.156;17.038;2023-09-18T05:08:12;38.60;;;19.77;;
52354;SDS011;38286;51.156;17.038;2023-09-18T05:10:38;36.90;;;19.38;;
52354;SDS011;38286;51.156;17.038;2023-09-18T05:13:05;39.83;;;21.95;;
52354;SDS011;38286;51.156;17.038;2023-09-18T05:15:32;42.15;;;19.83;;
52354;SDS011;38286;51.156;17.038;2023-09-18T05:17:59;38.92;;;19.25;;
52354;SDS011;38286;51.156;17.038;2023-09-18T05:20:27;40.55;;;21.27;;
52354;SDS011;38286;51.156;17.038;2023-09-18T05:22:54;39.83;;;20.75;;
52354;SDS011;38286;51.156;17.038;2023-09-18T05:25:21;41.00;;;20.73;;
52354;SDS011;38286;51.156;17.038;2023-09-18T05:27:49;39.47;;;21.70;;
52354;SDS011;38286;51.156;17.038;2023-09-18T05:30:21;39.80;;;21.75;;
52354;SDS011;38286;51.156;17.038;2023-09-18T05:32:54;42.60;;;21.00;;
52354;SDS011;38286;51.156;17.038;2023-09-18T05:35:23;42.72;;;22.65;;
52354;SDS011;38286;51.156;17.038;2023-09-18T05:37:49;37.17;;;20.42;;
52354;SDS011;38286;51.156;17.038;2023-09-18T05:40:22;41.03;;;21.42;;
52354;SDS011;38286;51.156;17.038;2023-09-18T05:42:48;32.85;;;19.48;;
52354;SDS011;38286;51.156;17.038;2023-09-18T05:45:14;36.20;;;19.50;;
52354;SDS011;38286;51.156;17.038;2023-09-18T05:47:40;32.63;;;18.77;;
52354;SDS011;38286;51.156;17.038;2023-09-18T05:50:08;36.05;;;19.70;;
52354;SDS011;38286;51.156;17.038;2023-09-18T05:52:35;33.90;;;19.48;;
52354;SDS011;38286;51.156;17.038;2023-09-18T05:55:02;40.13;;;20.95;;
52354;SDS011;38286;51.156;17.038;2023-09-18T05:57:28;33.78;;;18.90;;
52354;SDS011;38286;51.156;17.038;2023-09-18T05:59:55;36.35;;;20.27;;
52354;SDS011;38286;51.156;17.038;2023-09-18T06:02:21;36.55;;;19.55;;
52354;SDS011;38286;51.156;17.038;2023-09-18T06:04:48;32.72;;;18.50;;
52354;SDS011;38286;51.156;17.038;2023-09-18T06:07:14;35.40;;;18.95;;
52354;SDS011;38286;51.156;17.038;2023-09-18T06:09:40;37.55;;;21.52;;
52354;SDS011;38286;51.156;17.038;2023-09-18T06:12:07;31.23;;;19.33;;
52354;SDS011;38286;51.156;17.038;2023-09-18T06:14:35;32.92;;;19.40;;
52354;SDS011;38286;51.156;17.038;2023-09-18T06:17:03;32.17;;;18.25;;
52354;SDS011;38286;51.156;17.038;2023-09-18T06:19:31;32.40;;;18.25;;
52354;SDS011;38286;51.156;17.038;2023-09-18T06:21:58;32.03;;;17.42;;
52354;SDS011;38286;51.156;17.038;2023-09-18T06:24:24;28.55;;;17.60;;
52354;SDS011;38286;51.156;17.038;2023-09-18T06:26:50;31.45;;;17.20;;
52354;SDS011;38286;51.156;17.038;2023-09-18T06:29:16;30.98;;;18.48;;
52354;SDS011;38286;51.156;17.038;2023-09-18T06:31:42;24.95;;;16.30;;
52354;SDS011;38286;51.156;17.038;2023-09-18T06:34:08;27.95;;;17.58;;
52354;SDS011;38286;51.156;17.038;2023-09-18T06:36:34;24.27;;;15.32;;
52354;SDS011;38286;51.156;17.038;2023-09-18T06:39:00;22.25;;;14.57;;
52354;SDS011;38286;51.156;17.038;2023-09-18T06:41:26;20.83;;;14.52;;
52354;SDS011;38286;51.156;17.038;2023-09-18T06:43:52;22.33;;;13.55;;
52354;SDS011;38286;51.156;17.038;2023-09-18T06:46:18;20.83;;;13.10;;
52354;SDS011;38286;51.156;17.038;2023-09-18T06:48:44;20.67;;;12.05;;
52354;SDS011;38286;51.156;17.038;2023-09-18T06:51:15;17.70;;;11.27;;
52354;SDS011;38286;51.156;17.038;2023-09-18T06:53:41;15.32;;;11.52;;
52354;SDS011;38286;51.156;17.038;2023-09-18T06:56:09;20.33;;;10.88;;
52354;SDS011;38286;51.156;17.038;2023-09-18T06:58:35;16.23;;;10.52;;
52354;SDS011;38286;51.156;17.038;2023-09-18T07:01:02;13.43;;;10.07;;
52354;SDS011;38286;51.156;17.038;2023-09-18T07:03:28;14.82;;;9.48;;
52354;SDS011;38286;51.156;17.038;2023-09-18T07:05:54;14.50;;;9.77;;
52354;SDS011;38286;51.156;17.038;2023-09-18T07:08:20;14.27;;;8.52;;
52354;SDS011;38286;51.156;17.038;2023-09-18T07:10:49;10.75;;;7.85;;
52354;SDS011;38286;51.156;17.038;2023-09-18T07:13:15;12.18;;;8.57;;
52354;SDS011;38286;51.156;17.038;2023-09-18T07:15:41;11.52;;;8.02;;
52354;SDS011;38286;51.156;17.038;2023-09-18T07:18:07;12.25;;;7.43;;
52354;SDS011;38286;51.156;17.038;2023-09-18T07:20:35;10.50;;;6.93;;
52354;SDS011;38286;51.156;17.038;2023-09-18T07:23:01;9.93;;;6.43;;
52354;SDS011;38286;51.156;17.038;2023-09-18T07:25:27;8.02;;;6.22;;
52354;SDS011;38286;51.156;17.038;2023-09-18T07:27:53;9.68;;;6.63;;
52354;SDS011;38286;51.156;17.038;2023-09-18T07:30:19;8.18;;;6.32;;
52354;SDS011;38286;51.156;17.038;2023-09-18T07:32:47;9.63;;;6.50;;
52354;SDS011;38286;51.156;17.038;2023-09-18T07:35:13;8.77;;;6.05;;
52354;SDS011;38286;51.156;17.038;2023-09-18T07:37:40;8.52;;;6.15;;
52354;SDS011;38286;51.156;17.038;2023-09-18T07:40:07;11.05;;;6.38;;
52354;SDS011;38286;51.156;17.038;2023-09-18T07:42:33;7.80;;;6.30;;
52354;SDS011;38286;51.156;17.038;2023-09-18T07:44:59;9.52;;;6.47;;
52354;SDS011;38286;51.156;17.038;2023-09-18T07:47:25;9.38;;;6.15;;
52354;SDS011;38286;51.156;17.038;2023-09-18T07:49:51;7.03;;;5.72;;
52354;SDS011;38286;51.156;17.038;2023-09-18T07:52:19;8.18;;;6.63;;
52354;SDS011;38286;51.156;17.038;2023-09-18T07:54:45;8.55;;;5.85;;
52354;SDS011;38286;51.156;17.038;2023-09-18T07:57:11;9.15;;;6.10;;
52354;SDS011;38286;51.156;17.038;2023-09-18T07:59:37;8.63;;;6.03;;
52354;SDS011;38286;51.156;17.038;2023-09-18T08:02:04;9.88;;;6.65;;
52354;SDS011;38286;51.156;17.038;2023-09-18T08:04:31;7.75;;;6.15;;
52354;SDS011;38286;51.156;17.038;2023-09-18T08:06:57;6.70;;;5.88;;
52354;SDS011;38286;51.156;17.038;2023-09-18T08:09:23;8.43;;;7.07;;
52354;SDS011;38286;51.156;17.038;2023-09-18T08:11:49;8.40;;;5.93;;
52354;SDS011;38286;51.156;17.038;2023-09-18T08:14:15;11.90;;;6.57;;
52354;SDS011;38286;51.156;17.038;2023-09-18T08:16:42;9.55;;;7.07;;
52354;SDS011;38286;51.156;17.038;2023-09-18T08:19:08;8.80;;;6.38;;
52354;SDS011;38286;51.156;17.038;2023-09-18T08:21:34;9.63;;;6.75;;
52354;SDS011;38286;51.156;17.038;2023-09-18T08:24:00;10.35;;;7.50;;
52354;SDS011;38286;51.156;17.038;2023-09-18T08:26:27;9.02;;;7.03;;
52354;SDS011;38286;51.156;17.038;2023-09-18T08:28:55;10.95;;;7.68;;
52354;SDS011;38286;51.156;17.038;2023-09-18T08:31:21;9.18;;;7.13;;
52354;SDS011;38286;51.156;17.038;2023-09-18T08:33:47;8.60;;;7.53;;
52354;SDS011;38286;51.156;17.038;2023-09-18T08:36:13;8.82;;;7.00;;
52354;SDS011;38286;51.156;17.038;2023-09-18T08:38:41;11.00;;;7.22;;
52354;SDS011;38286;51.156;17.038;2023-09-18T08:41:08;10.65;;;7.30;;
52354;SDS011;38286;51.156;17.038;2023-09-18T08:43:35;10.52;;;7.40;;
52354;SDS011;38286;51.156;17.038;2023-09-18T08:46:02;11.20;;;7.50;;
52354;SDS011;38286;51.156;17.038;2023-09-18T08:48:29;9.10;;;7.18;;
52354;SDS011;38286;51.156;17.038;2023-09-18T08:51:04;10.20;;;7.68;;
52354;SDS011;38286;51.156;17.038;2023-09-18T08:53:34;11.02;;;8.02;;
52354;SDS011;38286;51.156;17.038;2023-09-18T08:56:01;12.57;;;7.68;;
52354;SDS011;38286;51.156;17.038;2023-09-18T08:58:33;10.40;;;7.55;;
52354;SDS011;38286;51.156;17.038;2023-09-18T09:01:06;11.15;;;7.55;;
52354;SDS011;38286;51.156;17.038;2023-09-18T09:03:38;13.00;;;7.63;;
52354;SDS011;38286;51.156;17.038;2023-09-18T09:06:05;12.13;;;8.20;;
52354;SDS011;38286;51.156;17.038;2023-09-18T09:08:32;10.65;;;8.43;;
52354;SDS011;38286;51.156;17.038;2023-09-18T09:10:58;12.23;;;8.48;;
52354;SDS011;38286;51.156;17.038;2023-09-18T09:13:24;10.75;;;8.02;;
52354;SDS011;38286;51.156;17.038;2023-09-18T09:15:54;10.45;;;7.75;;
52354;SDS011;38286;51.156;17.038;2023-09-18T09:18:24;10.30;;;8.18;;
52354;SDS011;38286;51.156;17.038;2023-09-18T09:20:54;12.43;;;7.95;;
52354;SDS011;38286;51.156;17.038;2023-09-18T09:26:25;11.35;;;7.93;;
52354;SDS011;38286;51.156;17.038;2023-09-18T09:28:52;10.82;;;8.23;;
52354;SDS011;38286;51.156;17.038;2023-09-18T09:31:25;10.70;;;8.32;;
52354;SDS011;38286;51.156;17.038;2023-09-18T09:33:53;9.63;;;7.90;;
52354;SDS011;38286;51.156;17.038;2023-09-18T09:36:20;11.20;;;8.70;;
52354;SDS011;38286;51.156;17.038;2023-09-18T09:38:46;10.25;;;7.95;;
52354;SDS011;38286;51.156;17.038;2023-09-18T09:41:15;11.52;;;8.43;;
52354;SDS011;38286;51.156;17.038;2023-09-18T09:43:43;12.30;;;8.45;;
52354;SDS011;38286;51.156;17.038;2023-09-18T09:46:16;12.52;;;8.77;;
52354;SDS011;38286;51.156;17.038;2023-09-18T09:48:59;11.82;;;8.23;;
52354;SDS011;38286;51.156;17.038;2023-09-18T09:51:29;10.73;;;8.85;;
52354;SDS011;38286;51.156;17.038;2023-09-18T09:53:55;12.50;;;8.90;;
52354;SDS011;38286;51.156;17.038;2023-09-18T09:56:36;10.55;;;8.48;;
52354;SDS011;38286;51.156;17.038;2023-09-18T09:59:16;11.07;;;7.90;;
52354;SDS011;38286;51.156;17.038;2023-09-18T10:01:47;13.07;;;8.73;;
52354;SDS011;38286;51.156;17.038;2023-09-18T10:04:16;10.90;;;8.20;;
52354;SDS011;38286;51.156;17.038;2023-09-18T10:06:44;10.57;;;8.18;;
52354;SDS011;38286;51.156;17.038;2023-09-18T10:09:12;20.02;;;9.05;;
52354;SDS011;38286;51.156;17.038;2023-09-18T10:11:43;13.13;;;7.80;;
52354;SDS011;38286;51.156;17.038;2023-09-18T10:14:19;10.43;;;7.75;;
52354;SDS011;38286;51.156;17.038;2023-09-18T10:16:49;11.18;;;7.50;;
52354;SDS011;38286;51.156;17.038;2023-09-18T10:24:36;8.50;;;6.80;;
52354;SDS011;38286;51.156;17.038;2023-09-18T10:27:03;8.00;;;6.35;;
52354;SDS011;38286;51.156;17.038;2023-09-18T10:29:35;7.65;;;6.88;;
52354;SDS011;38286;51.156;17.038;2023-09-18T10:32:05;8.75;;;6.05;;
52354;SDS011;38286;51.156;17.038;2023-09-18T10:34:35;8.63;;;6.07;;
52354;SDS011;38286;51.156;17.038;2023-09-18T10:37:02;7.07;;;5.97;;
52354;SDS011;38286;51.156;17.038;2023-09-18T10:39:35;6.68;;;6.00;;
52354;SDS011;38286;51.156;17.038;2023-09-18T10:42:02;7.10;;;6.07;;
52354;SDS011;38286;51.156;17.038;2023-09-18T10:44:30;9.02;;;5.82;;
52354;SDS011;38286;51.156;17.038;2023-09-18T10:47:00;8.43;;;6.38;;
52354;SDS011;38286;51.156;17.038;2023-09-18T10:49:27;8.00;;;6.38;;
52354;SDS011;38286;51.156;17.038;2023-09-18T10:51:54;6.43;;;5.82;;
52354;SDS011;38286;51.156;17.038;2023-09-18T10:54:21;7.15;;;5.88;;
52354;SDS011;38286;51.156;17.038;2023-09-18T10:56:49;8.00;;;5.30;;
52354;SDS011;38286;51.156;17.038;2023-09-18T10:59:16;8.55;;;5.85;;
52354;SDS011;38286;51.156;17.038;2023-09-18T11:01:43;7.25;;;5.75;;
52354;SDS011;38286;51.156;17.038;2023-09-18T11:04:10;6.25;;;5.65;;
52354;SDS011;38286;51.156;17.038;2023-09-18T11:09:24;6.57;;;5.75;;
52354;SDS011;38286;51.156;17.038;2023-09-18T11:12:14;8.18;;;5.75;;
52354;SDS011;38286;51.156;17.038;2023-09-18T11:14:56;7.18;;;5.30;;
52354;SDS011;38286;51.156;17.038;2023-09-18T11:17:33;14.90;;;6.28;;
52354;SDS011;38286;51.156;17.038;2023-09-18T11:20:04;7.57;;;5.30;;
52354;SDS011;38286;51.156;17.038;2023-09-18T11:22:47;7.07;;;5.63;;
52354;SDS011;38286;51.156;17.038;2023-09-18T11:30:50;6.30;;;5.70;;
52354;SDS011;38286;51.156;17.038;2023-09-18T11:33:33;7.38;;;5.28;;
52354;SDS011;38286;51.156;17.038;2023-09-18T11:36:07;5.70;;;5.15;;
52354;SDS011;38286;51.156;17.038;2023-09-18T11:41:24;6.32;;;4.93;;
52354;SDS011;38286;51.156;17.038;2023-09-18T11:43:51;6.63;;;5.07;;
52354;SDS011;38286;51.156;17.038;2023-09-18T11:46:18;6.25;;;5.07;;
52354;SDS011;38286;51.156;17.038;2023-09-18T11:48:46;5.30;;;4.80;;
52354;SDS011;38286;51.156;17.038;2023-09-18T11:51:20;5.78;;;5.18;;
52354;SDS011;38286;51.156;17.038;2023-09-18T11:53:47;5.67;;;5.07;;
52354;SDS011;38286;51.156;17.038;2023-09-18T11:56:17;6.13;;;5.10;;
52354;SDS011;38286;51.156;17.038;2023-09-18T11:58:45;7.63;;;5.38;;
52354;SDS011;38286;51.156;17.038;2023-09-18T12:01:15;6.13;;;5.30;;
52354;SDS011;38286;51.156;17.038;2023-09-18T12:03:41;5.93;;;4.65;;
52354;SDS011;38286;51.156;17.038;2023-09-18T12:06:07;5.53;;;4.88;;
52354;SDS011;38286;51.156;17.038;2023-09-18T12:08:38;6.05;;;4.53;;
52354;SDS011;38286;51.156;17.038;2023-09-18T12:11:05;5.80;;;4.53;;
52354;SDS011;38286;51.156;17.038;2023-09-18T12:13:31;6.32;;;4.78;;
52354;SDS011;38286;51.156;17.038;2023-09-18T12:16:01;4.88;;;4.22;;
52354;SDS011;38286;51.156;17.038;2023-09-18T12:18:31;6.50;;;4.57;;
52354;SDS011;38286;51.156;17.038;2023-09-18T12:21:01;5.47;;;4.40;;
52354;SDS011;38286;51.156;17.038;2023-09-18T12:23:36;4.00;;;3.58;;
52354;SDS011;38286;51.156;17.038;2023-09-18T12:26:04;6.03;;;4.10;;
52354;SDS011;38286;51.156;17.038;2023-09-18T12:28:35;5.93;;;4.13;;
52354;SDS011;38286;51.156;17.038;2023-09-18T12:31:02;5.78;;;4.30;;
52354;SDS011;38286;51.156;17.038;2023-09-18T12:33:38;4.10;;;3.63;;
52354;SDS011;38286;51.156;17.038;2023-09-18T12:36:05;7.18;;;3.42;;
52354;SDS011;38286;51.156;17.038;2023-09-18T12:38:32;4.38;;;3.30;;
52354;SDS011;38286;51.156;17.038;2023-09-18T12:40:59;3.78;;;2.97;;
52354;SDS011;38286;51.156;17.038;2023-09-18T12:43:49;5.40;;;3.63;;
52354;SDS011;38286;51.156;17.038;2023-09-18T12:46:15;5.35;;;3.20;;
52354;SDS011;38286;51.156;17.038;2023-09-18T12:48:44;4.45;;;3.33;;
52354;SDS011;38286;51.156;17.038;2023-09-18T12:51:13;4.80;;;3.38;;
52354;SDS011;38286;51.156;17.038;2023-09-18T12:53:41;5.75;;;3.50;;
52354;SDS011;38286;51.156;17.038;2023-09-18T12:56:08;4.10;;;3.70;;
52354;SDS011;38286;51.156;17.038;2023-09-18T12:58:36;5.15;;;3.08;;
52354;SDS011;38286;51.156;17.038;2023-09-18T13:01:09;5.97;;;3.60;;
52354;SDS011;38286;51.156;17.038;2023-09-18T13:03:46;6.30;;;3.20;;
52354;SDS011;38286;51.156;17.038;2023-09-18T13:06:16;4.38;;;3.38;;
52354;SDS011;38286;51.156;17.038;2023-09-18T13:08:43;4.20;;;3.10;;
52354;SDS011;38286;51.156;17.038;2023-09-18T13:11:10;6.53;;;3.28;;
52354;SDS011;38286;51.156;17.038;2023-09-18T13:13:42;8.40;;;3.40;;
52354;SDS011;38286;51.156;17.038;2023-09-18T13:16:09;5.95;;;3.20;;
52354;SDS011;38286;51.156;17.038;2023-09-18T13:18:35;4.20;;;3.30;;
52354;SDS011;38286;51.156;17.038;2023-09-18T13:21:09;4.97;;;3.58;;
52354;SDS011;38286;51.156;17.038;2023-09-18T13:23:36;5.65;;;3.33;;
52354;SDS011;38286;51.156;17.038;2023-09-18T13:26:03;4.53;;;3.53;;
52354;SDS011;38286;51.156;17.038;2023-09-18T13:28:30;4.88;;;3.42;;
52354;SDS011;38286;51.156;17.038;2023-09-18T13:30:58;5.25;;;3.60;;
52354;SDS011;38286;51.156;17.038;2023-09-18T13:33:25;6.15;;;3.83;;
52354;SDS011;38286;51.156;17.038;2023-09-18T13:35:51;5.82;;;3.60;;
52354;SDS011;38286;51.156;17.038;2023-09-18T13:38:18;5.80;;;3.53;;
52354;SDS011;38286;51.156;17.038;2023-09-18T13:40:46;4.93;;;3.58;;
52354;SDS011;38286;51.156;17.038;2023-09-18T13:43:13;4.55;;;3.67;;
52354;SDS011;38286;51.156;17.038;2023-09-18T13:45:44;4.93;;;3.53;;
52354;SDS011;38286;51.156;17.038;2023-09-18T13:48:11;7.18;;;3.45;;
52354;SDS011;38286;51.156;17.038;2023-09-18T13:50:37;8.40;;;4.03;;
52354;SDS011;38286;51.156;17.038;2023-09-18T13:53:04;6.15;;;3.45;;
52354;SDS011;38286;51.156;17.038;2023-09-18T13:55:31;5.88;;;3.65;;
52354;SDS011;38286;51.156;17.038;2023-09-18T13:57:57;4.72;;;3.55;;
52354;SDS011;38286;51.156;17.038;2023-09-18T14:00:24;4.70;;;3.70;;
52354;SDS011;38286;51.156;17.038;2023-09-18T14:02:51;7.25;;;4.40;;
52354;SDS011;38286;51.156;17.038;2023-09-18T14:05:17;6.40;;;4.18;;
52354;SDS011;38286;51.156;17.038;2023-09-18T14:07:43;6.45;;;3.78;;
52354;SDS011;38286;51.156;17.038;2023-09-18T14:10:09;8.38;;;4.25;;
52354;SDS011;38286;51.156;17.038;2023-09-18T14:12:39;7.72;;;4.53;;
52354;SDS011;38286;51.156;17.038;2023-09-18T14:15:07;5.93;;;4.53;;
52354;SDS011;38286;51.156;17.038;2023-09-18T14:17:34;4.68;;;4.20;;
52354;SDS011;38286;51.156;17.038;2023-09-18T14:20:00;5.32;;;4.50;;
52354;SDS011;38286;51.156;17.038;2023-09-18T14:22:32;7.00;;;4.00;;
52354;SDS011;38286;51.156;17.038;2023-09-18T14:24:58;7.50;;;4.70;;
52354;SDS011;38286;51.156;17.038;2023-09-18T14:27:24;6.75;;;4.10;;
52354;SDS011;38286;51.156;17.038;2023-09-18T14:29:50;5.80;;;3.95;;
52354;SDS011;38286;51.156;17.038;2023-09-18T14:32:16;5.65;;;4.10;;
52354;SDS011;38286;51.156;17.038;2023-09-18T14:34:42;7.22;;;4.43;;
52354;SDS011;38286;51.156;17.038;2023-09-18T14:37:08;6.07;;;4.10;;
52354;SDS011;38286;51.156;17.038;2023-09-18T14:39:35;9.30;;;4.45;;
52354;SDS011;38286;51.156;17.038;2023-09-18T14:42:00;7.10;;;4.15;;
52354;SDS011;38286;51.156;17.038;2023-09-18T14:44:27;6.50;;;4.30;;
52354;SDS011;38286;51.156;17.038;2023-09-18T14:46:53;6.25;;;4.13;;